Terminal Aerodrome Forecast
Issued by NWS Northern Indiana

Home | Current Version | Previous Version | Text Only | Print | Product List | Glossary Off
Versions: 1 2 3 4 5 6 7 8 9 10 11 12 13 14 15 16 17

300
FTUS43 KIWX 190316 AAA
TAFFWA
TAF AMD
KFWA 190316Z 1903/1924 34010KT 2SM -RASN BR OVC008
     FM190700 34014G22KT 3SM -SN BR OVC008
      TEMPO 1908/1910 1 1/2SM -SN BR
     FM191100 34012G20KT P6SM OVC015
     FM191300 34014G20KT P6SM FEW015 BKN200=

USA.gov is the U.S. government's official web portal to all federal, state and local government web resources and services.